PWSweather.com
Personal Weather Stations
Station Observations
COONRAPIDS
Minneapolis, MN 55433

Minneapolis, MN 55433

Lat: 45.187721, Lon: -93.36828

Elevation: 898

Station Type: Davis Vantage Pro 2

High Low Average
Temperature 46.3°F7.9°C 37.9°F3.3°C 41.3°F5.2°C
Dew Point 38.2°F3.4°C 34.7°F1.5°C 36.5°F2.5°C
Winds 3.5 mph 5.6 kmh Calm Calm 1.0 mph ENE1.6 kmh ENE
Wind Gusts 9.2 mph14.8 kmh -- 2.0 mph3.2 kmh
Humidity 89% 72% 83%
Pressure 30.12 in1020.0 mb 30.02 in1016.6 mb -
Precipitation 0.15 in3.8 mm - -
Hour Temp Dew Point Humidity Winds Wind Gusts Pressure Precip Precip Rate Daily Precip Total
12:00 AM 40.1°F4.5°C 35.6°F2.0°C 84% 1.2 mph NE1.9 kmh NE 3.5 mph5.6 kmh 30.11 in1019.6 mb - 0.03 in0.8 mm 0.03 in0.8 mm
12:10 AM 39.9°F4.4°C 35.8°F2.1°C 85% Calm Calm -- 30.11 in1019.6 mb - 0.05 in1.3 mm 0.02 in0.5 mm
12:20 AM 39.9°F4.4°C 35.8°F2.1°C 85% 1.2 mph ENE1.9 kmh ENE 2.3 mph3.7 kmh 30.11 in1019.6 mb - 0.06 in1.5 mm 0.03 in0.8 mm
12:30 AM 39.8°F4.3°C 36.0°F2.2°C 86% 1.2 mph NE1.9 kmh NE 4.6 mph7.4 kmh 30.11 in1019.6 mb - 0.05 in1.3 mm 0.03 in0.8 mm
12:40 AM 39.7°F4.3°C 35.9°F2.2°C 86% Calm Calm -- 30.12 in1020.0 mb - 0.06 in1.5 mm 0.04 in1.0 mm
12:50 AM 39.7°F4.3°C 35.9°F2.2°C 86% 2.3 mph NE3.7 kmh NE 2.3 mph3.7 kmh 30.12 in1020.0 mb - 0.06 in1.5 mm 0.05 in1.3 mm
01:00 AM 39.6°F4.2°C 35.8°F2.1°C 86% 1.2 mph ENE1.9 kmh ENE 2.3 mph3.7 kmh 30.12 in1020.0 mb - 0.05 in1.3 mm 0.05 in1.3 mm
01:10 AM 39.5°F4.2°C 36.0°F2.2°C 87% 1.2 mph NE1.9 kmh NE 3.5 mph5.6 kmh 30.12 in1020.0 mb - 0.04 in1.0 mm 0.06 in1.5 mm
01:20 AM 39.5°F4.2°C 36.0°F2.2°C 87% 2.3 mph NE3.7 kmh NE 3.5 mph5.6 kmh 30.11 in1019.6 mb - 0.03 in0.8 mm 0.06 in1.5 mm
01:30 AM 39.4°F4.1°C 35.9°F2.2°C 87% Calm Calm 2.3 mph3.7 kmh 30.11 in1019.6 mb - 0.03 in0.8 mm 0.06 in1.5 mm
01:40 AM 39.4°F4.1°C 35.9°F2.2°C 87% 1.2 mph NE1.9 kmh NE 2.3 mph3.7 kmh 30.11 in1019.6 mb - 0.03 in0.8 mm 0.07 in1.8 mm
01:50 AM 39.4°F4.1°C 35.9°F2.2°C 87% Calm Calm 3.5 mph5.6 kmh 30.11 in1019.6 mb - 0.02 in0.5 mm 0.07 in1.8 mm
02:00 AM 39.4°F4.1°C 35.9°F2.2°C 87% Calm Calm -- 30.11 in1019.6 mb - 0.03 in0.8 mm 0.08 in2.0 mm
02:10 AM 39.5°F4.2°C 35.9°F2.2°C 87% 1.2 mph NE1.9 kmh NE 3.5 mph5.6 kmh 30.10 in1019.3 mb - 0.03 in0.8 mm 0.09 in2.3 mm
02:20 AM 39.4°F4.1°C 36.1°F2.3°C 88% 2.3 mph NE3.7 kmh NE 3.5 mph5.6 kmh 30.10 in1019.3 mb - 0.03 in0.8 mm 0.09 in2.3 mm
02:30 AM 39.4°F4.1°C 36.1°F2.3°C 88% Calm Calm -- 30.10 in1019.3 mb - 0.03 in0.8 mm 0.09 in2.3 mm
02:40 AM 39.3°F4.1°C 36.0°F2.2°C 88% Calm Calm -- 30.09 in1019.0 mb - 0.02 in0.5 mm 0.09 in2.3 mm
02:50 AM 39.3°F4.1°C 36.0°F2.2°C 88% 1.2 mph NE1.9 kmh NE 4.6 mph7.4 kmh 30.08 in1018.6 mb - 0.03 in0.8 mm 0.10 in2.5 mm
03:00 AM 39.1°F3.9°C 35.8°F2.1°C 88% 2.3 mph ENE3.7 kmh ENE 9.2 mph14.8 kmh 30.07 in1018.3 mb - 0.02 in0.5 mm 0.10 in2.5 mm
03:10 AM 38.8°F3.8°C 35.6°F2.0°C 88% 2.3 mph NE3.7 kmh NE 3.5 mph5.6 kmh 30.05 in1017.6 mb - 0.02 in0.5 mm 0.11 in2.8 mm
03:20 AM 38.4°F3.6°C 35.2°F1.8°C 88% 1.2 mph ENE1.9 kmh ENE 3.5 mph5.6 kmh 30.05 in1017.6 mb - 0.02 in0.5 mm 0.11 in2.8 mm
03:30 AM 38.3°F3.5°C 35.1°F1.7°C 88% 3.5 mph NE5.6 kmh NE 4.6 mph7.4 kmh 30.03 in1016.9 mb - 0.02 in0.5 mm 0.11 in2.8 mm
03:40 AM 38.2°F3.4°C 35.0°F1.7°C 88% 2.3 mph ENE3.7 kmh ENE 3.5 mph5.6 kmh 30.03 in1016.9 mb - 0.03 in0.8 mm 0.12 in3.0 mm
03:50 AM 38.1°F3.4°C 34.9°F1.6°C 88% 1.2 mph NE1.9 kmh NE 2.3 mph3.7 kmh 30.04 in1017.3 mb - 0.02 in0.5 mm 0.12 in3.0 mm
04:00 AM 38.0°F3.3°C 34.8°F1.6°C 88% 3.5 mph NE5.6 kmh NE 8.1 mph13.0 kmh 30.03 in1016.9 mb - 0.02 in0.5 mm 0.12 in3.0 mm
04:10 AM 38.0°F3.3°C 34.8°F1.6°C 88% 1.2 mph NE1.9 kmh NE 1.2 mph1.9 kmh 30.03 in1016.9 mb - 0.01 in0.3 mm 0.12 in3.0 mm
04:20 AM 38.0°F3.3°C 34.8°F1.6°C 88% 1.2 mph NE1.9 kmh NE 3.5 mph5.6 kmh 30.03 in1016.9 mb - 0.01 in0.3 mm 0.12 in3.0 mm
04:30 AM 38.0°F3.3°C 34.8°F1.6°C 88% 2.3 mph NE3.7 kmh NE 2.3 mph3.7 kmh 30.03 in1016.9 mb - 0.01 in0.3 mm 0.12 in3.0 mm
04:40 AM 38.0°F3.3°C 34.8°F1.6°C 88% 2.3 mph NE3.7 kmh NE 8.1 mph13.0 kmh 30.03 in1016.9 mb - 0.01 in0.3 mm 0.12 in3.0 mm
04:50 AM 38.0°F3.3°C 34.8°F1.6°C 88% 2.3 mph NE3.7 kmh NE 4.6 mph7.4 kmh 30.02 in1016.6 mb - 0.00 in0.0 mm 0.12 in3.0 mm
05:00 AM 38.0°F3.3°C 34.8°F1.6°C 88% 2.3 mph NE3.7 kmh NE 3.5 mph5.6 kmh 30.02 in1016.6 mb - 0.00 in0.0 mm 0.12 in3.0 mm
05:10 AM 37.9°F3.3°C 34.7°F1.5°C 88% 2.3 mph NE3.7 kmh NE 4.6 mph7.4 kmh 30.02 in1016.6 mb - 0.00 in0.0 mm 0.12 in3.0 mm
05:20 AM 37.9°F3.3°C 34.7°F1.5°C 88% 1.2 mph NE1.9 kmh NE 3.5 mph5.6 kmh 30.02 in1016.6 mb - 0.00 in0.0 mm 0.12 in3.0 mm
05:30 AM 37.9°F3.3°C 34.7°F1.5°C 88% 2.3 mph NE3.7 kmh NE 3.5 mph5.6 kmh 30.02 in1016.6 mb - 0.00 in0.0 mm 0.12 in3.0 mm
05:40 AM 37.9°F3.3°C 34.7°F1.5°C 88% 1.2 mph NE1.9 kmh NE 3.5 mph5.6 kmh 30.02 in1016.6 mb - 0.00 in0.0 mm 0.12 in3.0 mm
05:50 AM 37.9°F3.3°C 34.7°F1.5°C 88% Calm Calm -- 30.02 in1016.6 mb - 0.00 in0.0 mm 0.12 in3.0 mm
06:00 AM 37.9°F3.3°C 34.7°F1.5°C 88% 1.2 mph NE1.9 kmh NE 2.3 mph3.7 kmh 30.03 in1016.9 mb - 0.00 in0.0 mm 0.12 in3.0 mm
06:10 AM 38.0°F3.3°C 34.8°F1.6°C 88% Calm Calm -- 30.03 in1016.9 mb - 0.00 in0.0 mm 0.12 in3.0 mm
06:20 AM 38.0°F3.3°C 34.8°F1.6°C 88% Calm Calm -- 30.05 in1017.6 mb - 0.00 in0.0 mm 0.12 in3.0 mm
06:30 AM 38.0°F3.3°C 34.8°F1.6°C 88% Calm Calm -- 30.05 in1017.6 mb - 0.00 in0.0 mm 0.12 in3.0 mm
06:40 AM 38.1°F3.4°C 34.9°F1.6°C 88% 1.2 mph NNE1.9 kmh NNE 2.3 mph3.7 kmh 30.05 in1017.6 mb - 0.00 in0.0 mm 0.12 in3.0 mm
06:50 AM 38.1°F3.4°C 34.9°F1.6°C 88% Calm Calm -- 30.06 in1017.9 mb - 0.00 in0.0 mm 0.12 in3.0 mm
07:00 AM 38.1°F3.4°C 34.8°F1.6°C 88% Calm Calm 3.5 mph5.6 kmh 30.05 in1017.6 mb - 0.00 in0.0 mm 0.12 in3.0 mm
07:10 AM 38.1°F3.4°C 34.8°F1.6°C 88% 2.3 mph NE3.7 kmh NE 3.5 mph5.6 kmh 30.05 in1017.6 mb - 0.00 in0.0 mm 0.12 in3.0 mm
07:20 AM 38.1°F3.4°C 35.1°F1.7°C 89% 1.2 mph NE1.9 kmh NE 4.6 mph7.4 kmh 30.05 in1017.6 mb - 0.00 in0.0 mm 0.12 in3.0 mm
07:30 AM 38.2°F3.4°C 35.2°F1.8°C 89% Calm Calm 1.2 mph1.9 kmh 30.05 in1017.6 mb - 0.00 in0.0 mm 0.12 in3.0 mm
07:40 AM 38.3°F3.5°C 35.3°F1.8°C 89% Calm Calm -- 30.04 in1017.3 mb - 0.00 in0.0 mm 0.12 in3.0 mm
07:50 AM 38.2°F3.4°C 35.0°F1.7°C 88% 3.5 mph NE5.6 kmh NE 3.5 mph5.6 kmh 30.04 in1017.3 mb - 0.00 in0.0 mm 0.12 in3.0 mm
08:00 AM 38.3°F3.5°C 35.3°F1.8°C 89% 1.2 mph NE1.9 kmh NE 2.3 mph3.7 kmh 30.03 in1016.9 mb - 0.00 in0.0 mm 0.12 in3.0 mm
08:10 AM 38.5°F3.6°C 35.5°F1.9°C 89% 3.5 mph NE5.6 kmh NE 5.8 mph9.3 kmh 30.02 in1016.6 mb - 0.00 in0.0 mm 0.12 in3.0 mm
08:20 AM 38.7°F3.7°C 35.7°F2.1°C 89% 3.5 mph NE5.6 kmh NE 6.9 mph11.1 kmh 30.02 in1016.6 mb - 0.00 in0.0 mm 0.12 in3.0 mm
08:30 AM 38.8°F3.8°C 35.8°F2.1°C 89% 3.5 mph ENE5.6 kmh ENE 5.8 mph9.3 kmh 30.02 in1016.6 mb - 0.00 in0.0 mm 0.12 in3.0 mm
08:40 AM 39.1°F3.9°C 36.1°F2.3°C 89% 2.3 mph NE3.7 kmh NE 5.8 mph9.3 kmh 30.02 in1016.6 mb - 0.00 in0.0 mm 0.12 in3.0 mm
08:50 AM 39.2°F4.0°C 35.9°F2.2°C 88% 1.2 mph NE1.9 kmh NE 3.5 mph5.6 kmh 30.03 in1016.9 mb - 0.00 in0.0 mm 0.12 in3.0 mm
09:00 AM 39.2°F4.0°C 35.9°F2.2°C 88% 3.5 mph NNE5.6 kmh NNE 8.1 mph13.0 kmh 30.04 in1017.3 mb - 0.00 in0.0 mm 0.12 in3.0 mm
09:10 AM 39.2°F4.0°C 35.9°F2.2°C 88% 1.2 mph NE1.9 kmh NE 3.5 mph5.6 kmh 30.04 in1017.3 mb - 0.00 in0.0 mm 0.12 in3.0 mm
09:20 AM 39.2°F4.0°C 35.9°F2.2°C 88% 1.2 mph NNE1.9 kmh NNE 3.5 mph5.6 kmh 30.03 in1016.9 mb - 0.00 in0.0 mm 0.12 in3.0 mm
09:30 AM 39.4°F4.1°C 36.1°F2.3°C 88% 1.2 mph NNE1.9 kmh NNE 2.3 mph3.7 kmh 30.03 in1016.9 mb - 0.00 in0.0 mm 0.12 in3.0 mm
09:40 AM 39.4°F4.1°C 35.9°F2.2°C 87% Calm Calm -- 30.04 in1017.3 mb - 0.00 in0.0 mm 0.12 in3.0 mm
09:50 AM 39.5°F4.2°C 36.0°F2.2°C 87% Calm Calm -- 30.05 in1017.6 mb - 0.00 in0.0 mm 0.12 in3.0 mm
10:00 AM 39.7°F4.3°C 36.1°F2.3°C 87% 2.3 mph NNE3.7 kmh NNE 5.8 mph9.3 kmh 30.04 in1017.3 mb - 0.00 in0.0 mm 0.12 in3.0 mm
10:10 AM 39.7°F4.3°C 36.1°F2.3°C 87% Calm Calm 2.3 mph3.7 kmh 30.05 in1017.6 mb - 0.00 in0.0 mm 0.12 in3.0 mm
10:20 AM 39.9°F4.4°C 36.1°F2.3°C 86% Calm Calm -- 30.06 in1017.9 mb - 0.00 in0.0 mm 0.12 in3.0 mm
10:30 AM 40.0°F4.4°C 36.2°F2.3°C 86% Calm Calm -- 30.06 in1017.9 mb - 0.00 in0.0 mm 0.12 in3.0 mm
10:40 AM 40.0°F4.4°C 36.2°F2.3°C 86% Calm Calm -- 30.06 in1017.9 mb - 0.00 in0.0 mm 0.12 in3.0 mm
10:50 AM 40.0°F4.4°C 36.2°F2.3°C 86% 1.2 mph NE1.9 kmh NE 3.5 mph5.6 kmh 30.06 in1017.9 mb - 0.00 in0.0 mm 0.12 in3.0 mm
11:00 AM 40.2°F4.6°C 36.3°F2.4°C 86% 1.2 mph NE1.9 kmh NE 3.5 mph5.6 kmh 30.05 in1017.6 mb - 0.00 in0.0 mm 0.12 in3.0 mm
11:10 AM 40.4°F4.7°C 36.6°F2.6°C 86% Calm Calm 3.5 mph5.6 kmh 30.06 in1017.9 mb - 0.00 in0.0 mm 0.12 in3.0 mm
11:20 AM 40.5°F4.7°C 36.6°F2.6°C 86% 1.2 mph N1.9 kmh N 1.2 mph1.9 kmh 30.05 in1017.6 mb - 0.00 in0.0 mm 0.12 in3.0 mm
11:30 AM 40.6°F4.8°C 36.7°F2.6°C 86% Calm Calm -- 30.05 in1017.6 mb - 0.00 in0.0 mm 0.12 in3.0 mm
11:40 AM 40.8°F4.9°C 36.6°F2.6°C 85% 2.3 mph NE3.7 kmh NE 4.6 mph7.4 kmh 30.05 in1017.6 mb - 0.00 in0.0 mm 0.12 in3.0 mm
11:50 AM 41.1°F5.1°C 36.9°F2.7°C 85% 2.3 mph N3.7 kmh N 3.5 mph5.6 kmh 30.05 in1017.6 mb - 0.00 in0.0 mm 0.12 in3.0 mm
12:00 PM 41.3°F5.2°C 37.1°F2.8°C 85% Calm Calm -- 30.05 in1017.6 mb - 0.00 in0.0 mm 0.12 in3.0 mm
12:10 PM 41.5°F5.3°C 37.0°F2.8°C 84% Calm Calm -- 30.05 in1017.6 mb - 0.00 in0.0 mm 0.12 in3.0 mm
12:20 PM 41.6°F5.3°C 37.1°F2.8°C 84% 2.3 mph NNE3.7 kmh NNE 3.5 mph5.6 kmh 30.05 in1017.6 mb - 0.00 in0.0 mm 0.12 in3.0 mm
12:30 PM 41.8°F5.4°C 37.0°F2.8°C 83% 2.3 mph NE3.7 kmh NE 4.6 mph7.4 kmh 30.05 in1017.6 mb - 0.00 in0.0 mm 0.12 in3.0 mm
12:40 PM 41.7°F5.4°C 36.9°F2.7°C 83% Calm Calm -- 30.05 in1017.6 mb - 0.00 in0.0 mm 0.12 in3.0 mm
12:50 PM 42.0°F5.6°C 36.9°F2.7°C 82% 1.2 mph NE1.9 kmh NE 3.5 mph5.6 kmh 30.05 in1017.6 mb - 0.00 in0.0 mm 0.12 in3.0 mm
01:00 PM 42.0°F5.6°C 36.9°F2.7°C 82% Calm Calm -- 30.05 in1017.6 mb - 0.00 in0.0 mm 0.12 in3.0 mm
01:10 PM 42.4°F5.8°C 37.3°F2.9°C 82% 1.2 mph NNE1.9 kmh NNE 3.5 mph5.6 kmh 30.05 in1017.6 mb - 0.00 in0.0 mm 0.12 in3.0 mm
01:20 PM 42.9°F6.1°C 37.4°F3.0°C 81% 2.3 mph NNE3.7 kmh NNE 4.6 mph7.4 kmh 30.04 in1017.3 mb - 0.00 in0.0 mm 0.12 in3.0 mm
01:30 PM 43.1°F6.2°C 37.3°F2.9°C 80% 2.3 mph NE3.7 kmh NE 4.6 mph7.4 kmh 30.04 in1017.3 mb - 0.00 in0.0 mm 0.12 in3.0 mm
01:40 PM 43.4°F6.3°C 37.6°F3.1°C 80% 1.2 mph NNE1.9 kmh NNE 2.3 mph3.7 kmh 30.04 in1017.3 mb - 0.00 in0.0 mm 0.12 in3.0 mm
01:50 PM 44.0°F6.7°C 37.9°F3.3°C 79% 2.3 mph NE3.7 kmh NE 3.5 mph5.6 kmh 30.04 in1017.3 mb - 0.00 in0.0 mm 0.12 in3.0 mm
02:00 PM 44.0°F6.7°C 37.5°F3.1°C 78% Calm Calm -- 30.05 in1017.6 mb - 0.00 in0.0 mm 0.12 in3.0 mm
02:10 PM 44.2°F6.8°C 37.4°F3.0°C 77% 1.2 mph NNW1.9 kmh NNW 3.5 mph5.6 kmh 30.05 in1017.6 mb - 0.00 in0.0 mm 0.12 in3.0 mm
02:20 PM 44.4°F6.9°C 37.3°F2.9°C 76% Calm Calm -- 30.05 in1017.6 mb - 0.00 in0.0 mm 0.12 in3.0 mm
02:30 PM 44.7°F7.1°C 37.3°F2.9°C 75% 2.3 mph NNE3.7 kmh NNE 3.5 mph5.6 kmh 30.05 in1017.6 mb - 0.00 in0.0 mm 0.12 in3.0 mm
02:40 PM 45.0°F7.2°C 37.6°F3.1°C 75% 1.2 mph NNW1.9 kmh NNW 1.2 mph1.9 kmh 30.05 in1017.6 mb - 0.00 in0.0 mm 0.12 in3.0 mm
02:50 PM 44.6°F7.0°C 37.2°F2.9°C 75% 1.2 mph NNW1.9 kmh NNW 1.2 mph1.9 kmh 30.05 in1017.6 mb - 0.00 in0.0 mm 0.12 in3.0 mm
03:00 PM 44.6°F7.0°C 37.5°F3.1°C 76% 1.2 mph NNE1.9 kmh NNE 4.6 mph7.4 kmh 30.05 in1017.6 mb - 0.00 in0.0 mm 0.12 in3.0 mm
03:10 PM 44.7°F7.1°C 37.6°F3.1°C 76% 2.3 mph NNE3.7 kmh NNE 3.5 mph5.6 kmh 30.05 in1017.6 mb - 0.00 in0.0 mm 0.12 in3.0 mm
03:20 PM 44.9°F7.2°C 37.8°F3.2°C 76% Calm Calm -- 30.05 in1017.6 mb - 0.00 in0.0 mm 0.12 in3.0 mm
03:30 PM 45.3°F7.4°C 37.8°F3.2°C 75% Calm Calm -- 30.05 in1017.6 mb - 0.00 in0.0 mm 0.12 in3.0 mm
03:40 PM 45.8°F7.7°C 38.0°F3.3°C 74% Calm Calm -- 30.06 in1017.9 mb - 0.00 in0.0 mm 0.12 in3.0 mm
03:50 PM 46.0°F7.8°C 38.2°F3.4°C 74% Calm Calm -- 30.06 in1017.9 mb - 0.00 in0.0 mm 0.12 in3.0 mm
04:00 PM 46.1°F7.8°C 37.9°F3.3°C 73% Calm Calm -- 30.07 in1018.3 mb - 0.00 in0.0 mm 0.12 in3.0 mm
04:10 PM 46.1°F7.8°C 37.6°F3.1°C 72% 1.2 mph NE1.9 kmh NE 1.2 mph1.9 kmh 30.06 in1017.9 mb - 0.00 in0.0 mm 0.12 in3.0 mm
04:20 PM 46.0°F7.8°C 37.8°F3.2°C 73% Calm Calm -- 30.06 in1017.9 mb - 0.00 in0.0 mm 0.12 in3.0 mm
04:30 PM 45.8°F7.7°C 37.6°F3.1°C 73% Calm Calm -- 30.06 in1017.9 mb - 0.00 in0.0 mm 0.12 in3.0 mm
04:40 PM 45.9°F7.7°C 38.1°F3.4°C 74% Calm Calm -- 30.06 in1017.9 mb - 0.00 in0.0 mm 0.12 in3.0 mm
04:50 PM 46.0°F7.8°C 37.8°F3.2°C 73% 1.2 mph NNE1.9 kmh NNE 2.3 mph3.7 kmh 30.07 in1018.3 mb - 0.00 in0.0 mm 0.12 in3.0 mm
05:00 PM 46.2°F7.9°C 38.0°F3.3°C 73% Calm Calm -- 30.07 in1018.3 mb - 0.00 in0.0 mm 0.12 in3.0 mm
05:10 PM 46.3°F7.9°C 38.1°F3.4°C 73% 2.3 mph NE3.7 kmh NE 3.5 mph5.6 kmh 30.07 in1018.3 mb - 0.00 in0.0 mm 0.12 in3.0 mm
05:20 PM 46.0°F7.8°C 37.5°F3.1°C 72% Calm Calm -- 30.07 in1018.3 mb - 0.00 in0.0 mm 0.12 in3.0 mm
05:30 PM 45.8°F7.7°C 37.6°F3.1°C 73% Calm Calm -- 30.07 in1018.3 mb - 0.00 in0.0 mm 0.12 in3.0 mm
05:40 PM 45.9°F7.7°C 37.7°F3.2°C 73% Calm Calm -- 30.07 in1018.3 mb - 0.00 in0.0 mm 0.12 in3.0 mm
05:50 PM 45.7°F7.6°C 37.5°F3.1°C 73% 1.2 mph NE1.9 kmh NE 2.3 mph3.7 kmh 30.07 in1018.3 mb - 0.00 in0.0 mm 0.12 in3.0 mm
06:00 PM 45.4°F7.4°C 37.6°F3.1°C 74% 1.2 mph NE1.9 kmh NE 3.5 mph5.6 kmh 30.07 in1018.3 mb - 0.00 in0.0 mm 0.12 in3.0 mm
06:10 PM 45.1°F7.3°C 37.3°F2.9°C 74% Calm Calm -- 30.07 in1018.3 mb - 0.00 in0.0 mm 0.12 in3.0 mm
06:20 PM 44.9°F7.2°C 37.5°F3.1°C 75% Calm Calm -- 30.06 in1017.9 mb - 0.00 in0.0 mm 0.12 in3.0 mm
06:30 PM 44.8°F7.1°C 37.4°F3.0°C 75% Calm Calm 3.5 mph5.6 kmh 30.07 in1018.3 mb - 0.00 in0.0 mm 0.12 in3.0 mm
06:40 PM 44.8°F7.1°C 37.3°F2.9°C 75% 2.3 mph NE3.7 kmh NE 3.5 mph5.6 kmh 30.07 in1018.3 mb - 0.00 in0.0 mm 0.12 in3.0 mm
06:50 PM 44.7°F7.1°C 37.6°F3.1°C 76% 1.2 mph ENE1.9 kmh ENE 3.5 mph5.6 kmh 30.07 in1018.3 mb - 0.00 in0.0 mm 0.12 in3.0 mm
07:00 PM 44.4°F6.9°C 37.3°F2.9°C 76% Calm Calm -- 30.06 in1017.9 mb - 0.00 in0.0 mm 0.12 in3.0 mm
07:10 PM 44.2°F6.8°C 37.4°F3.0°C 77% 1.2 mph NE1.9 kmh NE 1.2 mph1.9 kmh 30.07 in1018.3 mb - 0.00 in0.0 mm 0.12 in3.0 mm
07:20 PM 44.0°F6.7°C 37.3°F2.9°C 77% Calm Calm -- 30.08 in1018.6 mb - 0.00 in0.0 mm 0.12 in3.0 mm
07:30 PM 43.9°F6.6°C 37.5°F3.1°C 78% Calm Calm -- 30.09 in1019.0 mb - 0.00 in0.0 mm 0.12 in3.0 mm
07:40 PM 43.7°F6.5°C 37.3°F2.9°C 78% Calm Calm -- 30.09 in1019.0 mb - 0.00 in0.0 mm 0.12 in3.0 mm
07:50 PM 43.6°F6.4°C 37.5°F3.1°C 79% 1.2 mph NE1.9 kmh NE 2.3 mph3.7 kmh 30.08 in1018.6 mb - 0.00 in0.0 mm 0.12 in3.0 mm
08:00 PM 43.3°F6.3°C 37.3°F2.9°C 79% 1.2 mph ENE1.9 kmh ENE 2.3 mph3.7 kmh 30.07 in1018.3 mb - 0.00 in0.0 mm 0.12 in3.0 mm
08:10 PM 43.1°F6.2°C 37.0°F2.8°C 79% 1.2 mph ENE1.9 kmh ENE 3.5 mph5.6 kmh 30.08 in1018.6 mb - 0.00 in0.0 mm 0.12 in3.0 mm
08:20 PM 42.9°F6.1°C 37.2°F2.9°C 80% Calm Calm -- 30.09 in1019.0 mb - 0.00 in0.0 mm 0.12 in3.0 mm
08:30 PM 42.7°F5.9°C 37.3°F2.9°C 81% 1.2 mph NE1.9 kmh NE 2.3 mph3.7 kmh 30.09 in1019.0 mb - 0.00 in0.0 mm 0.12 in3.0 mm
08:40 PM 42.6°F5.9°C 37.2°F2.9°C 81% 2.3 mph NE3.7 kmh NE 3.5 mph5.6 kmh 30.09 in1019.0 mb - 0.00 in0.0 mm 0.12 in3.0 mm
08:50 PM 42.4°F5.8°C 37.3°F2.9°C 82% Calm Calm -- 30.09 in1019.0 mb - 0.00 in0.0 mm 0.12 in3.0 mm
09:00 PM 42.3°F5.7°C 37.2°F2.9°C 82% Calm Calm -- 30.09 in1019.0 mb - 0.00 in0.0 mm 0.12 in3.0 mm
09:10 PM 42.2°F5.7°C 37.4°F3.0°C 83% Calm Calm -- 30.10 in1019.3 mb - 0.00 in0.0 mm 0.12 in3.0 mm
09:20 PM 42.0°F5.6°C 37.2°F2.9°C 83% Calm Calm -- 30.10 in1019.3 mb - 0.00 in0.0 mm 0.12 in3.0 mm
09:30 PM 42.0°F5.6°C 37.2°F2.9°C 83% Calm Calm -- 30.10 in1019.3 mb - 0.00 in0.0 mm 0.12 in3.0 mm
09:40 PM 41.9°F5.5°C 37.4°F3.0°C 84% Calm Calm -- 30.10 in1019.3 mb - 0.01 in0.3 mm 0.13 in3.3 mm
09:50 PM 41.8°F5.4°C 37.3°F2.9°C 84% Calm Calm -- 30.11 in1019.6 mb - 0.01 in0.3 mm 0.13 in3.3 mm
10:00 PM 41.7°F5.4°C 37.5°F3.1°C 85% Calm Calm -- 30.11 in1019.6 mb - 0.02 in0.5 mm 0.14 in3.6 mm
10:10 PM 41.6°F5.3°C 37.4°F3.0°C 85% 1.2 mph NE1.9 kmh NE 2.3 mph3.7 kmh 30.11 in1019.6 mb - 0.02 in0.5 mm 0.14 in3.6 mm
10:20 PM 41.4°F5.2°C 37.2°F2.9°C 85% Calm Calm -- 30.11 in1019.6 mb - 0.02 in0.5 mm 0.14 in3.6 mm
10:30 PM 41.4°F5.2°C 37.5°F3.1°C 86% Calm Calm -- 30.11 in1019.6 mb - 0.02 in0.5 mm 0.14 in3.6 mm
10:40 PM 41.3°F5.2°C 37.4°F3.0°C 86% Calm Calm -- 30.11 in1019.6 mb - 0.02 in0.5 mm 0.15 in3.8 mm
10:50 PM 41.1°F5.1°C 37.2°F2.9°C 86% Calm Calm 2.3 mph3.7 kmh 30.11 in1019.6 mb - 0.02 in0.5 mm 0.15 in3.8 mm
11:00 PM 41.0°F5.0°C 37.4°F3.0°C 87% Calm Calm -- 30.11 in1019.6 mb - 0.01 in0.3 mm 0.15 in3.8 mm
11:10 PM 41.0°F5.0°C 37.4°F3.0°C 87% Calm Calm -- 30.11 in1019.6 mb - 0.01 in0.3 mm 0.15 in3.8 mm
11:20 PM 41.0°F5.0°C 37.4°F3.0°C 87% Calm Calm -- 30.11 in1019.6 mb - 0.01 in0.3 mm 0.15 in3.8 mm
11:30 PM 40.9°F4.9°C 37.3°F2.9°C 87% Calm Calm -- 30.11 in1019.6 mb - 0.01 in0.3 mm 0.15 in3.8 mm
11:40 PM 40.8°F4.9°C 37.2°F2.9°C 87% Calm Calm -- 30.10 in1019.3 mb - 0.00 in0.0 mm 0.15 in3.8 mm
11:50 PM 40.8°F4.9°C 37.2°F2.9°C 87% Calm Calm -- 30.10 in1019.3 mb - 0.00 in0.0 mm 0.15 in3.8 mm